createdAt,value
2022-11-10T00:00:23.055Z,2.04
2022-11-10T00:02:49.700Z,1.97
2022-11-10T00:05:16.243Z,1.93
2022-11-10T00:07:42.782Z,1.92
2022-11-10T00:10:10.632Z,1.95
2022-11-10T00:12:37.399Z,1.99
2022-11-10T00:15:04.483Z,2.05
2022-11-10T00:17:31.397Z,2.07
2022-11-10T00:19:57.927Z,2.06
2022-11-10T00:22:26.159Z,2.08
2022-11-10T00:24:52.811Z,2.12
2022-11-10T00:27:19.548Z,2.13
2022-11-10T00:29:46.145Z,2.14
2022-11-10T00:32:12.603Z,2.14
2022-11-10T00:34:39.326Z,2.12
2022-11-10T00:37:05.871Z,2.08
2022-11-10T00:39:32.354Z,2.07
2022-11-10T00:41:59.157Z,2.11
2022-11-10T00:44:25.793Z,2.13
2022-11-10T00:46:52.332Z,2.11
2022-11-10T00:49:18.871Z,2.08
2022-11-10T00:51:45.414Z,2.05
2022-11-10T00:54:12.141Z,2.04
2022-11-10T00:56:38.597Z,2.04
2022-11-10T00:59:05.235Z,2.05
2022-11-10T01:01:31.756Z,2.04
2022-11-10T01:03:58.317Z,2.04
2022-11-10T01:06:24.853Z,2.03
2022-11-10T01:08:51.607Z,2.03
2022-11-10T01:11:24.702Z,1.98
2022-11-10T01:13:52.924Z,1.91
2022-11-10T01:16:29.246Z,1.86
2022-11-10T01:18:58.760Z,1.85
2022-11-10T01:21:25.819Z,1.85
2022-11-10T01:23:52.767Z,1.84
2022-11-10T01:26:20.025Z,1.82
2022-11-10T01:28:47.473Z,1.80
2022-11-10T01:31:17.530Z,1.76
2022-11-10T01:33:44.259Z,1.67
2022-11-10T01:36:12.019Z,1.59
2022-11-10T01:38:40.651Z,1.56
2022-11-10T01:41:10.870Z,1.56
2022-11-10T01:43:38.201Z,1.55
2022-11-10T01:46:07.626Z,1.50
2022-11-10T01:48:44.694Z,1.44
2022-11-10T01:51:28.853Z,1.42
2022-11-10T01:54:01.486Z,1.50
2022-11-10T01:56:30.773Z,1.53
2022-11-10T01:59:08.842Z,1.55
2022-11-10T02:01:35.383Z,1.74
2022-11-10T02:04:06.409Z,1.77
2022-11-10T02:06:41.154Z,1.72
2022-11-10T02:09:07.962Z,1.65
2022-11-10T02:11:36.320Z,1.57
2022-11-10T02:14:03.395Z,1.51
2022-11-10T02:16:30.693Z,1.46
2022-11-10T02:18:57.347Z,1.42
2022-11-10T02:21:24.066Z,1.38
2022-11-10T02:23:52.628Z,1.36
2022-11-10T02:26:25.981Z,1.34
2022-11-10T02:28:52.515Z,1.31
2022-11-10T02:31:19.200Z,1.25
2022-11-10T02:33:45.694Z,1.21
2022-11-10T02:36:13.056Z,1.18
2022-11-10T02:38:40.428Z,1.16
2022-11-10T02:41:06.960Z,1.15
2022-11-10T02:43:34.335Z,1.10
2022-11-10T02:46:00.859Z,1.04
2022-11-10T02:48:27.400Z,1.00
2022-11-10T02:50:53.837Z,0.97
2022-11-10T02:53:20.707Z,0.96
2022-11-10T02:55:47.430Z,0.97
2022-11-10T02:58:13.967Z,0.97
2022-11-10T03:00:40.506Z,0.98
2022-11-10T03:03:07.059Z,0.98
2022-11-10T03:05:33.592Z,1.01
2022-11-10T03:08:02.512Z,1.05
2022-11-10T03:10:30.104Z,1.08
2022-11-10T03:12:58.871Z,1.08
2022-11-10T03:15:26.298Z,1.06
2022-11-10T03:17:53.047Z,1.01
2022-11-10T03:20:19.687Z,0.95
2022-11-10T03:22:46.843Z,0.92
2022-11-10T03:25:13.628Z,0.95
2022-11-10T03:27:40.104Z,0.98
2022-11-10T03:30:07.906Z,1.00
2022-11-10T03:32:34.552Z,1.03
2022-11-10T03:35:00.990Z,1.06
2022-11-10T03:37:27.397Z,1.07
2022-11-10T03:39:53.864Z,1.06
2022-11-10T03:42:20.404Z,1.04
2022-11-10T03:44:46.823Z,1.02
2022-11-10T03:47:13.292Z,1.00
2022-11-10T03:49:39.828Z,0.99
2022-11-10T03:52:06.364Z,0.98
2022-11-10T03:54:32.873Z,0.98
2022-11-10T03:56:59.467Z,1.02
2022-11-10T03:59:25.984Z,1.03
2022-11-10T04:01:52.665Z,1.01
2022-11-10T04:04:19.375Z,1.01
2022-11-10T04:06:45.913Z,0.99
2022-11-10T04:09:12.556Z,0.98
2022-11-10T04:11:38.996Z,0.97
2022-11-10T04:14:05.540Z,0.94
2022-11-10T04:16:32.061Z,0.92
2022-11-10T04:18:58.516Z,0.87
2022-11-10T04:21:24.950Z,0.83
2022-11-10T04:23:51.698Z,0.79
2022-11-10T04:26:18.242Z,0.77
2022-11-10T04:28:46.851Z,0.81
2022-11-10T04:31:14.242Z,0.81
2022-11-10T04:33:41.777Z,0.80
2022-11-10T04:36:09.744Z,0.82
2022-11-10T04:38:36.478Z,0.88
2022-11-10T04:41:03.835Z,0.88
2022-11-10T04:43:31.092Z,0.88
2022-11-10T04:45:58.604Z,0.88
2022-11-10T04:48:26.048Z,0.90
2022-11-10T04:50:52.662Z,0.88
2022-11-10T04:53:20.405Z,0.89
2022-11-10T04:55:47.383Z,0.92
2022-11-10T04:58:14.768Z,0.94
2022-11-10T05:00:42.228Z,0.98
2022-11-10T05:03:11.410Z,1.02
2022-11-10T05:05:38.264Z,1.09
2022-11-10T05:08:05.214Z,1.14
2022-11-10T05:10:32.264Z,1.20
2022-11-10T05:12:59.091Z,1.24
2022-11-10T05:15:25.789Z,1.29
2022-11-10T05:17:54.551Z,1.35
2022-11-10T05:20:22.729Z,1.40
2022-11-10T05:22:50.800Z,1.44
2022-11-10T05:25:17.343Z,1.49
2022-11-10T05:27:43.788Z,1.56
2022-11-10T05:30:10.772Z,1.65
2022-11-10T05:32:37.464Z,1.73
2022-11-10T05:35:04.325Z,1.81
2022-11-10T05:37:30.864Z,1.89
2022-11-10T05:39:57.406Z,1.96
2022-11-10T05:42:23.810Z,2.02
2022-11-10T05:44:50.393Z,2.09
2022-11-10T05:47:16.926Z,2.16
2022-11-10T05:49:43.476Z,2.23
2022-11-10T05:52:10.019Z,2.32
2022-11-10T05:54:36.558Z,2.39
2022-11-10T05:57:03.097Z,2.46
2022-11-10T05:59:29.569Z,2.55
2022-11-10T06:01:56.073Z,2.62
2022-11-10T06:04:22.718Z,2.66
2022-11-10T06:06:49.759Z,2.70
2022-11-10T06:09:16.307Z,2.76
2022-11-10T06:11:42.719Z,2.82
2022-11-10T06:14:09.189Z,2.89
2022-11-10T06:16:35.623Z,2.97
2022-11-10T06:19:02.164Z,3.03
2022-11-10T06:21:28.754Z,3.09
2022-11-10T06:23:55.339Z,3.19
2022-11-10T06:26:21.788Z,3.26
2022-11-10T06:28:48.327Z,3.32
2022-11-10T06:31:15.005Z,3.41
2022-11-10T06:33:41.511Z,3.53
2022-11-10T06:36:08.872Z,3.63
2022-11-10T06:38:35.312Z,3.73
2022-11-10T06:41:01.821Z,3.82
2022-11-10T06:43:28.291Z,3.90
2022-11-10T06:45:55.053Z,3.97
2022-11-10T06:48:21.573Z,4.05
2022-11-10T06:50:48.216Z,4.10
2022-11-10T06:53:14.655Z,4.15
2022-11-10T06:55:41.203Z,4.22
2022-11-10T06:58:08.761Z,4.28
2022-11-10T07:00:35.406Z,4.34
2022-11-10T07:03:04.434Z,4.38
2022-11-10T07:05:32.847Z,4.43
2022-11-10T07:08:16.123Z,4.48
2022-11-10T07:10:43.933Z,4.53
2022-11-10T07:13:11.349Z,4.54
2022-11-10T07:15:37.827Z,4.57
2022-11-10T07:18:05.157Z,4.66
2022-11-10T07:20:32.129Z,4.79
2022-11-10T07:23:03.969Z,4.94
2022-11-10T07:25:32.723Z,5.08
2022-11-10T07:28:01.249Z,5.23
2022-11-10T07:30:29.366Z,5.43
2022-11-10T07:33:40.370Z,5.61
2022-11-10T07:36:51.701Z,5.82
2022-11-10T07:39:24.357Z,6.07
2022-11-10T07:41:52.678Z,6.26
2022-11-10T07:44:19.511Z,6.42
2022-11-10T07:46:46.052Z,6.62
2022-11-10T07:49:12.558Z,6.77
2022-11-10T07:51:39.031Z,7.02
2022-11-10T07:54:05.571Z,7.32
2022-11-10T07:56:32.231Z,7.49
2022-11-10T07:58:58.858Z,7.47
2022-11-10T08:01:25.427Z,7.50
2022-11-10T08:03:51.937Z,7.65
2022-11-10T08:06:18.558Z,7.78
2022-11-10T08:08:48.235Z,7.86
2022-11-10T08:11:14.733Z,7.95
2022-11-10T08:13:41.368Z,8.05
2022-11-10T08:16:08.028Z,8.28
2022-11-10T08:18:35.735Z,8.51
2022-11-10T08:21:04.231Z,8.68
2022-11-10T08:23:30.767Z,8.83
2022-11-10T08:26:01.388Z,8.95
2022-11-10T08:28:28.594Z,9.03
2022-11-10T08:30:55.265Z,9.09
2022-11-10T08:33:22.656Z,9.11
2022-11-10T08:35:51.231Z,9.11
2022-11-10T08:38:26.557Z,9.10
2022-11-10T08:40:55.482Z,9.10
2022-11-10T08:43:22.137Z,9.14
2022-11-10T08:45:49.252Z,9.16
2022-11-10T08:48:19.184Z,9.14
2022-11-10T08:50:47.556Z,9.07
2022-11-10T08:53:16.148Z,8.97
2022-11-10T08:55:44.224Z,8.93
2022-11-10T08:58:16.393Z,8.92
2022-11-10T09:00:43.445Z,8.91
2022-11-10T09:03:20.317Z,8.92
2022-11-10T09:05:51.203Z,8.95
2022-11-10T09:08:20.170Z,8.99
2022-11-10T09:10:48.567Z,8.99
2022-11-10T09:13:16.354Z,8.99
2022-11-10T09:15:43.785Z,9.00
2022-11-10T09:18:12.401Z,8.92
2022-11-10T09:20:39.833Z,8.85
2022-11-10T09:23:09.094Z,8.84
2022-11-10T09:25:35.891Z,8.84
2022-11-10T09:28:03.041Z,8.84
2022-11-10T09:30:29.548Z,8.82
2022-11-10T09:32:59.324Z,8.76
2022-11-10T09:35:26.648Z,8.71
2022-11-10T09:37:53.187Z,8.71
2022-11-10T09:40:27.511Z,8.72
2022-11-10T09:42:56.309Z,8.70
2022-11-10T09:45:26.744Z,8.65
2022-11-10T09:48:03.011Z,8.59
2022-11-10T09:50:34.455Z,8.54
2022-11-10T09:53:02.874Z,8.49
2022-11-10T09:55:48.605Z,8.45
2022-11-10T09:58:16.115Z,8.40
2022-11-10T10:00:50.250Z,8.38
2022-11-10T10:03:22.521Z,8.40
2022-11-10T10:05:53.807Z,8.45
2022-11-10T10:08:33.024Z,8.53
2022-11-10T10:11:40.069Z,8.57
2022-11-10T10:14:22.924Z,8.62
2022-11-10T10:17:00.995Z,8.63
2022-11-10T10:19:42.847Z,8.64
2022-11-10T10:22:28.947Z,8.65
2022-11-10T10:24:59.068Z,8.65
2022-11-10T10:27:26.988Z,8.68
2022-11-10T10:29:53.705Z,8.66
2022-11-10T10:32:20.683Z,8.62
2022-11-10T10:34:47.319Z,8.59
2022-11-10T10:37:43.623Z,8.57
2022-11-10T10:40:16.287Z,8.59
2022-11-10T10:42:42.778Z,8.63
2022-11-10T10:45:27.225Z,8.69
2022-11-10T10:47:56.584Z,8.75
2022-11-10T10:50:36.292Z,8.80
2022-11-10T10:53:18.200Z,8.79
2022-11-10T10:55:57.742Z,8.79
2022-11-10T10:58:47.222Z,8.83
2022-11-10T11:01:16.602Z,8.87
2022-11-10T11:03:45.831Z,8.93
2022-11-10T11:06:15.018Z,8.94
2022-11-10T11:08:59.906Z,8.95
2022-11-10T11:11:35.458Z,8.98
2022-11-10T11:14:26.216Z,9.00
2022-11-10T11:17:11.900Z,9.06
2022-11-10T11:19:40.028Z,9.09
2022-11-10T11:22:28.493Z,9.08
2022-11-10T11:25:08.954Z,9.13
2022-11-10T11:27:57.238Z,9.25
2022-11-10T11:30:27.617Z,9.39
2022-11-10T11:33:34.932Z,9.41
2022-11-10T11:36:14.639Z,9.42
2022-11-10T11:38:41.323Z,9.45
2022-11-10T11:41:13.917Z,9.49
2022-11-10T11:43:59.040Z,9.56
2022-11-10T11:46:43.566Z,9.61
2022-11-10T11:49:47.251Z,9.69
2022-11-10T11:52:35.499Z,9.75
2022-11-10T11:55:15.044Z,9.77
2022-11-10T11:58:01.040Z,9.83
2022-11-10T12:00:31.595Z,9.90
2022-11-10T12:03:18.260Z,9.99
2022-11-10T12:06:18.826Z,10.07
2022-11-10T12:09:13.017Z,10.10
2022-11-10T12:12:31.238Z,10.10
2022-11-10T12:15:26.219Z,10.17
2022-11-10T12:18:07.261Z,10.17
2022-11-10T12:20:36.767Z,10.08
2022-11-10T12:23:14.061Z,9.98
2022-11-10T12:25:54.951Z,9.91
2022-11-10T12:28:27.471Z,9.87
2022-11-10T12:31:02.083Z,9.82
2022-11-10T12:33:31.877Z,9.75
2022-11-10T12:36:02.655Z,9.68
2022-11-10T12:38:44.132Z,9.56
2022-11-10T12:41:21.355Z,9.49
2022-11-10T12:44:12.155Z,9.45
2022-11-10T12:46:45.978Z,9.41
2022-11-10T12:49:29.345Z,9.36
2022-11-10T12:52:10.962Z,9.36
2022-11-10T12:54:40.461Z,9.36
2022-11-10T12:57:26.246Z,9.36
2022-11-10T13:00:01.704Z,9.36
2022-11-10T13:02:42.365Z,9.38
2022-11-10T13:05:16.382Z,9.36
2022-11-10T13:07:49.392Z,9.39
2022-11-10T13:10:28.094Z,9.47
2022-11-10T13:13:12.774Z,9.57
2022-11-10T13:15:39.335Z,9.63
2022-11-10T13:18:22.033Z,9.64
2022-11-10T13:20:52.140Z,9.65
2022-11-10T13:23:22.900Z,9.65
2022-11-10T13:25:58.919Z,9.64
2022-11-10T13:28:47.508Z,9.64
2022-11-10T13:31:29.115Z,9.61
2022-11-10T13:34:05.802Z,9.55
2022-11-10T13:36:43.805Z,9.50
2022-11-10T13:39:19.332Z,9.46
2022-11-10T13:41:50.976Z,9.40
2022-11-10T13:44:41.702Z,9.36
2022-11-10T13:47:08.526Z,9.34
2022-11-10T13:50:04.582Z,9.34
2022-11-10T13:53:08.934Z,9.35
2022-11-10T13:56:03.541Z,9.36
2022-11-10T13:58:33.808Z,9.30
2022-11-10T14:01:18.887Z,9.24
2022-11-10T14:03:45.416Z,9.18
2022-11-10T14:06:20.618Z,9.14
2022-11-10T14:09:05.794Z,9.09
2022-11-10T14:11:40.423Z,9.07
2022-11-10T14:14:17.000Z,9.07
2022-11-10T14:16:44.159Z,9.07
2022-11-10T14:19:37.518Z,9.07
2022-11-10T14:22:30.279Z,9.07
2022-11-10T14:25:11.144Z,9.09
2022-11-10T14:27:38.608Z,9.12
2022-11-10T14:30:22.030Z,9.13
2022-11-10T14:32:57.751Z,9.12
2022-11-10T14:35:28.201Z,9.12
2022-11-10T14:37:59.806Z,9.12
2022-11-10T14:40:27.777Z,9.11
2022-11-10T14:42:55.379Z,9.09
2022-11-10T14:45:27.746Z,9.08
2022-11-10T14:47:56.368Z,9.08
2022-11-10T14:50:28.819Z,9.09
2022-11-10T14:53:02.136Z,9.10
2022-11-10T14:55:32.014Z,9.07
2022-11-10T14:58:07.563Z,9.04
2022-11-10T15:00:38.132Z,9.01
2022-11-10T15:03:06.857Z,8.97
2022-11-10T15:05:34.207Z,8.94
2022-11-10T15:08:03.049Z,8.92
2022-11-10T15:10:40.852Z,8.89
2022-11-10T15:13:13.452Z,8.85
2022-11-10T15:15:43.358Z,8.81
2022-11-10T15:18:30.736Z,8.77
2022-11-10T15:21:05.478Z,8.67
2022-11-10T15:23:40.555Z,8.57
2022-11-10T15:26:20.511Z,8.51
2022-11-10T15:28:47.669Z,8.46
2022-11-10T15:31:25.675Z,8.39
2022-11-10T15:33:58.051Z,8.35
2022-11-10T15:36:24.432Z,8.30
2022-11-10T15:39:12.960Z,8.27
2022-11-10T15:41:44.984Z,8.22
2022-11-10T15:44:22.912Z,8.16
2022-11-10T15:46:53.678Z,8.09
2022-11-10T15:49:24.997Z,8.00
2022-11-10T15:51:52.266Z,7.95
2022-11-10T15:54:24.454Z,7.90
2022-11-10T15:56:51.125Z,7.84
2022-11-10T15:59:17.626Z,7.80
2022-11-10T16:01:44.164Z,7.74
2022-11-10T16:04:12.039Z,7.68
2022-11-10T16:06:39.914Z,7.61
2022-11-10T16:09:07.485Z,7.55
2022-11-10T16:11:35.085Z,7.46
2022-11-10T16:14:03.154Z,7.38
2022-11-10T16:16:30.912Z,7.31
2022-11-10T16:18:57.777Z,7.23
2022-11-10T16:21:25.889Z,7.16
2022-11-10T16:23:53.685Z,7.12
2022-11-10T16:26:23.552Z,7.09
2022-11-10T16:28:50.657Z,7.03
2022-11-10T16:31:21.489Z,7.01
2022-11-10T16:33:49.165Z,7.03
2022-11-10T16:36:24.137Z,7.08
2022-11-10T16:38:51.150Z,7.06
2022-11-10T16:41:17.587Z,7.03
2022-11-10T16:43:44.128Z,7.02
2022-11-10T16:46:37.344Z,6.98
2022-11-10T16:49:06.599Z,6.94
2022-11-10T16:51:45.629Z,6.91
2022-11-10T16:54:15.140Z,6.88
2022-11-10T16:56:41.676Z,6.87
2022-11-10T16:59:08.215Z,6.89
2022-11-10T17:01:36.697Z,6.93
2022-11-10T17:04:11.546Z,6.94
2022-11-10T17:06:38.214Z,6.93
2022-11-10T17:09:13.169Z,6.90
2022-11-10T17:11:39.598Z,6.89
2022-11-10T17:14:06.100Z,6.88
2022-11-10T17:16:36.580Z,6.86
2022-11-10T17:19:05.426Z,6.86
2022-11-10T17:21:35.755Z,6.89
2022-11-10T17:24:03.114Z,6.93
2022-11-10T17:26:30.369Z,6.94
2022-11-10T17:28:57.117Z,6.94
2022-11-10T17:31:23.776Z,6.94
2022-11-10T17:33:50.301Z,6.94
2022-11-10T17:36:22.987Z,6.94
2022-11-10T17:38:51.230Z,6.92
2022-11-10T17:41:19.730Z,6.93
2022-11-10T17:43:46.594Z,6.94
2022-11-10T17:46:16.306Z,6.94
2022-11-10T17:48:43.466Z,6.94
2022-11-10T17:51:17.067Z,6.95
2022-11-10T17:53:43.749Z,6.95
2022-11-10T17:56:10.357Z,6.95
2022-11-10T17:58:36.890Z,6.98
2022-11-10T18:01:11.029Z,7.00
2022-11-10T18:03:37.531Z,6.99
2022-11-10T18:06:06.466Z,6.97
2022-11-10T18:08:32.979Z,6.97
2022-11-10T18:11:01.057Z,6.99
2022-11-10T18:13:27.592Z,7.01
2022-11-10T18:15:57.929Z,7.02
2022-11-10T18:18:24.410Z,7.02
2022-11-10T18:20:52.534Z,7.01
2022-11-10T18:23:19.070Z,7.00
2022-11-10T18:25:45.611Z,7.01
2022-11-10T18:28:14.195Z,7.04
2022-11-10T18:30:41.212Z,7.07
2022-11-10T18:33:07.787Z,7.10
2022-11-10T18:35:36.763Z,7.13
2022-11-10T18:38:03.530Z,7.13
2022-11-10T18:40:30.068Z,7.13
2022-11-10T18:42:57.536Z,7.12
2022-11-10T18:45:25.296Z,7.10
2022-11-10T18:47:52.556Z,7.09
2022-11-10T18:50:19.841Z,7.07
2022-11-10T18:52:46.558Z,7.02
2022-11-10T18:55:13.099Z,7.00
2022-11-10T18:57:39.535Z,6.97
2022-11-10T19:00:06.972Z,6.95
2022-11-10T19:02:33.531Z,6.91
2022-11-10T19:05:00.274Z,6.86
2022-11-10T19:07:26.814Z,6.80
2022-11-10T19:09:53.355Z,6.76
2022-11-10T19:12:25.416Z,6.71
2022-11-10T19:14:53.196Z,6.66
2022-11-10T19:17:19.666Z,6.62
2022-11-10T19:19:46.170Z,6.60
2022-11-10T19:22:12.629Z,6.55
2022-11-10T19:25:00.957Z,6.52
2022-11-10T19:27:25.763Z,6.48
2022-11-10T19:29:52.321Z,6.43
2022-11-10T19:32:24.526Z,6.38
2022-11-10T19:34:51.418Z,6.33
2022-11-10T19:37:18.062Z,6.29
2022-11-10T19:39:44.628Z,6.24
2022-11-10T19:42:11.145Z,6.19
2022-11-10T19:44:37.704Z,6.14
2022-11-10T19:47:04.331Z,6.08
2022-11-10T19:49:30.773Z,6.01
2022-11-10T19:51:57.263Z,5.94
2022-11-10T19:54:23.846Z,5.92
2022-11-10T19:56:50.302Z,5.89
2022-11-10T19:59:16.930Z,5.84
2022-11-10T20:01:43.507Z,5.77
2022-11-10T20:04:09.957Z,5.69
2022-11-10T20:06:36.588Z,5.64
2022-11-10T20:09:03.500Z,5.61
2022-11-10T20:11:30.038Z,5.54
2022-11-10T20:13:58.725Z,5.48
2022-11-10T20:16:25.263Z,5.44
2022-11-10T20:18:51.802Z,5.42
2022-11-10T20:21:19.876Z,5.42
2022-11-10T20:23:52.455Z,5.40
2022-11-10T20:26:18.904Z,5.38
2022-11-10T20:28:45.949Z,5.37
2022-11-10T20:31:15.378Z,5.32
2022-11-10T20:33:42.945Z,5.29
2022-11-10T20:36:30.282Z,5.23
2022-11-10T20:38:58.430Z,5.20
2022-11-10T20:41:28.465Z,5.18
2022-11-10T20:43:55.820Z,5.15
2022-11-10T20:46:48.320Z,5.09
2022-11-10T20:49:09.243Z,5.02
2022-11-10T20:51:35.808Z,4.95
2022-11-10T20:54:02.452Z,4.89
2022-11-10T20:56:30.151Z,4.84
2022-11-10T20:58:57.685Z,4.81
2022-11-10T21:01:25.311Z,4.79
2022-11-10T21:03:52.194Z,4.78
2022-11-10T21:06:18.737Z,4.79
2022-11-10T21:08:45.919Z,4.80
2022-11-10T21:11:12.531Z,4.82
2022-11-10T21:13:39.072Z,4.81
2022-11-10T21:16:06.532Z,4.79
2022-11-10T21:18:36.137Z,4.77
2022-11-10T21:21:04.622Z,4.73
2022-11-10T21:23:31.261Z,4.67
2022-11-10T21:26:00.375Z,4.61
2022-11-10T21:28:27.412Z,4.54
2022-11-10T21:31:02.817Z,4.50
2022-11-10T21:33:29.253Z,4.46
2022-11-10T21:35:55.669Z,4.43
2022-11-10T21:38:22.275Z,4.43
2022-11-10T21:40:48.816Z,4.46
2022-11-10T21:43:15.355Z,4.49
2022-11-10T21:45:41.895Z,4.54
2022-11-10T21:48:08.850Z,4.54
2022-11-10T21:50:35.381Z,4.56
2022-11-10T21:53:06.571Z,4.58
2022-11-10T21:55:33.071Z,4.54
2022-11-10T21:57:59.643Z,4.51
2022-11-10T22:00:26.148Z,4.52
2022-11-10T22:02:57.846Z,4.53
2022-11-10T22:05:24.357Z,4.51
2022-11-10T22:07:50.821Z,4.47
2022-11-10T22:10:17.430Z,4.43
2022-11-10T22:12:43.965Z,4.37
2022-11-10T22:15:15.160Z,4.33
2022-11-10T22:17:41.651Z,4.27
2022-11-10T22:20:08.285Z,4.21
2022-11-10T22:22:34.831Z,4.18
2022-11-10T22:25:01.367Z,4.22
2022-11-10T22:27:28.014Z,4.24
2022-11-10T22:29:54.550Z,4.23
2022-11-10T22:32:21.092Z,4.20
2022-11-10T22:34:47.630Z,4.17
2022-11-10T22:37:14.179Z,4.15
2022-11-10T22:39:40.715Z,4.09
2022-11-10T22:42:13.030Z,4.04
2022-11-10T22:44:39.648Z,4.01
2022-11-10T22:47:06.087Z,4.00
2022-11-10T22:49:32.615Z,3.99
2022-11-10T22:51:59.254Z,3.96
2022-11-10T22:54:25.797Z,3.91
2022-11-10T22:56:52.320Z,3.85
2022-11-10T22:59:19.797Z,3.80
2022-11-10T23:01:46.575Z,3.74
2022-11-10T23:04:13.899Z,3.71
2022-11-10T23:06:40.471Z,3.68
2022-11-10T23:09:07.491Z,3.66
2022-11-10T23:11:34.033Z,3.64
2022-11-10T23:14:00.809Z,3.63
2022-11-10T23:16:33.562Z,3.64
2022-11-10T23:19:00.331Z,3.62
2022-11-10T23:21:29.777Z,3.59
2022-11-10T23:23:56.353Z,3.55
2022-11-10T23:26:28.118Z,3.53
2022-11-10T23:28:54.612Z,3.50
2022-11-10T23:31:26.518Z,3.46
2022-11-10T23:33:55.253Z,3.44
2022-11-10T23:36:23.920Z,3.43
2022-11-10T23:38:51.459Z,3.37
2022-11-10T23:41:20.315Z,3.37
2022-11-10T23:43:47.414Z,3.36
2022-11-10T23:46:14.368Z,3.32
2022-11-10T23:48:41.502Z,3.30
2022-11-10T23:51:11.247Z,3.29
2022-11-10T23:53:38.588Z,3.28
2022-11-10T23:56:09.329Z,3.28
2022-11-10T23:58:36.077Z,3.28
